Terminal Aerodrome Forecast
Issued by NWS

Home | Current Version | Previous Version | Graphics & Text | Print | Product List | Glossary On
Versions: 1 2 3 4 5 6 7 8 9 10 11 12 13 14 15 16 17 18 19 20 21 22 23 24 25 26 27
000
FTUS43 KICT 261251 AAA
TAFSLN
TAF AMD
KSLN 261251Z 2613/2712 VRB03KT 4SM BR OVC005
      TEMPO 2613/2615 2SM BR OVC003
     FM261600 07006KT P6SM SCT008 BKN012
     FM261800 08010KT P6SM SCT015 BKN030
     FM262100 08011KT P6SM VCTS BKN040CB
     FM270000 04014KT P6SM VCTS SCT015 BKN025CB
     FM270400 03014KT P6SM VCSH SCT009 BKN015=

USA.gov is the U.S. government's official web portal to all federal, state and local government web resources and services.